createdAt,value
2022-08-18T00:02:28.172Z,19.63
2022-08-18T00:04:58.619Z,19.65
2022-08-18T00:07:31.005Z,19.62
2022-08-18T00:10:00.466Z,19.55
2022-08-18T00:12:36.976Z,19.53
2022-08-18T00:15:08.408Z,19.50
2022-08-18T00:17:37.036Z,19.53
2022-08-18T00:20:14.115Z,19.49
2022-08-18T00:22:42.554Z,19.39
2022-08-18T00:25:17.345Z,19.46
2022-08-18T00:27:45.341Z,19.38
2022-08-18T00:30:17.328Z,19.42
2022-08-18T00:32:50.942Z,19.38
2022-08-18T00:35:21.055Z,19.36
2022-08-18T00:37:50.082Z,19.41
2022-08-18T00:40:22.217Z,19.36
2022-08-18T00:42:55.422Z,19.41
2022-08-18T00:45:28.143Z,19.38
2022-08-18T00:47:57.205Z,19.36
2022-08-18T00:50:34.983Z,19.38
2022-08-18T00:53:23.332Z,19.38
2022-08-18T00:55:53.956Z,19.43
2022-08-18T00:58:39.078Z,19.45
2022-08-18T01:01:09.841Z,19.32
2022-08-18T01:03:42.528Z,19.28
2022-08-18T01:06:21.802Z,19.18
2022-08-18T01:08:49.409Z,19.12
2022-08-18T01:11:17.071Z,19.16
2022-08-18T01:13:45.194Z,19.11
2022-08-18T01:16:33.235Z,19.07
2022-08-18T01:19:19.765Z,18.90
2022-08-18T01:21:55.473Z,18.84
2022-08-18T01:24:49.658Z,18.84
2022-08-18T01:27:19.308Z,18.81
2022-08-18T01:29:49.502Z,18.80
2022-08-18T01:32:20.871Z,18.75
2022-08-18T01:34:51.201Z,18.74
2022-08-18T01:37:22.375Z,18.75
2022-08-18T01:41:23.006Z,18.75
2022-08-18T01:42:43.517Z,18.78
2022-08-18T01:45:15.278Z,18.73
2022-08-18T01:47:58.206Z,18.81
2022-08-18T01:50:26.523Z,18.81
2022-08-18T01:52:54.152Z,18.77
2022-08-18T01:55:22.158Z,18.78
2022-08-18T01:57:49.983Z,18.78
2022-08-18T02:00:19.252Z,18.74
2022-08-18T02:03:01.726Z,18.65
2022-08-18T02:05:37.013Z,18.73
2022-08-18T02:08:06.595Z,18.64
2022-08-18T02:10:35.311Z,18.43
2022-08-18T02:13:03.019Z,18.42
2022-08-18T02:15:31.209Z,18.22
2022-08-18T02:17:59.006Z,18.15
2022-08-18T02:20:26.646Z,18.25
2022-08-18T02:22:54.583Z,18.30
2022-08-18T02:25:23.013Z,18.28
2022-08-18T02:27:51.254Z,18.29
2022-08-18T02:30:20.420Z,18.26
2022-08-18T02:32:48.365Z,18.35
2022-08-18T02:35:16.601Z,18.16
2022-08-18T02:37:48.263Z,18.09
2022-08-18T02:40:18.251Z,17.98
2022-08-18T02:42:47.310Z,18.13
2022-08-18T02:45:16.395Z,18.22
2022-08-18T02:47:45.289Z,18.17
2022-08-18T02:50:16.587Z,18.26
2022-08-18T02:52:47.888Z,18.32
2022-08-18T02:55:16.592Z,18.17
2022-08-18T02:57:46.990Z,18.01
2022-08-18T03:00:18.996Z,17.84
2022-08-18T03:02:52.309Z,17.84
2022-08-18T03:05:20.605Z,17.78
2022-08-18T03:07:50.297Z,17.77
2022-08-18T03:10:31.694Z,17.84
2022-08-18T03:13:01.789Z,17.81
2022-08-18T03:15:29.841Z,17.77
2022-08-18T03:17:58.222Z,17.79
2022-08-18T03:20:30.200Z,17.99
2022-08-18T03:23:05.910Z,18.06
2022-08-18T03:25:48.928Z,17.94
2022-08-18T03:28:17.799Z,17.84
2022-08-18T03:30:45.398Z,17.92
2022-08-18T03:33:14.460Z,18.10
2022-08-18T03:35:42.475Z,17.98
2022-08-18T03:38:10.506Z,17.94
2022-08-18T03:40:39.613Z,18.10
2022-08-18T03:43:23.637Z,18.25
2022-08-18T03:45:55.578Z,18.33
2022-08-18T03:48:23.302Z,18.36
2022-08-18T03:50:51.520Z,18.39
2022-08-18T03:53:19.591Z,18.42
2022-08-18T03:55:47.309Z,18.36
2022-08-18T03:58:15.679Z,18.43
2022-08-18T04:00:43.494Z,18.56
2022-08-18T04:03:12.950Z,18.70
2022-08-18T04:05:42.501Z,18.83
2022-08-18T04:08:11.835Z,18.91
2022-08-18T04:10:41.522Z,19.05
2022-08-18T04:13:12.034Z,19.08
2022-08-18T04:15:41.127Z,19.14
2022-08-18T04:18:09.500Z,19.23
2022-08-18T04:20:37.442Z,19.23
2022-08-18T04:23:23.796Z,19.16
2022-08-18T04:26:02.044Z,19.14
2022-08-18T04:28:30.606Z,19.01
2022-08-18T04:30:59.467Z,19.04
2022-08-18T04:33:28.406Z,19.07
2022-08-18T04:35:56.944Z,19.08
2022-08-18T04:38:24.547Z,19.01
2022-08-18T04:40:52.155Z,19.04
2022-08-18T04:43:20.167Z,19.07
2022-08-18T04:45:48.131Z,18.98
2022-08-18T04:48:16.278Z,18.95
2022-08-18T04:50:44.721Z,18.90
2022-08-18T04:53:33.452Z,18.85
2022-08-18T04:56:01.133Z,18.68
2022-08-18T04:58:28.739Z,18.53
2022-08-18T05:01:01.850Z,18.21
2022-08-18T05:03:29.541Z,18.09
2022-08-18T05:05:59.901Z,18.35
2022-08-18T05:08:27.623Z,18.25
2022-08-18T05:11:03.897Z,18.17
2022-08-18T05:13:32.087Z,18.19
2022-08-18T05:16:18.094Z,18.42
2022-08-18T05:18:53.525Z,18.29
2022-08-18T05:21:24.504Z,18.15
2022-08-18T05:23:52.384Z,18.17
2022-08-18T05:26:20.093Z,18.02
2022-08-18T05:28:48.588Z,18.09
2022-08-18T05:31:25.614Z,18.39
2022-08-18T05:33:55.831Z,18.56
2022-08-18T05:36:26.162Z,18.49
2022-08-18T05:39:06.976Z,18.40
2022-08-18T05:41:42.571Z,18.21
2022-08-18T05:44:15.600Z,18.46
2022-08-18T05:46:56.895Z,18.63
2022-08-18T05:49:27.435Z,18.67
2022-08-18T05:52:02.874Z,18.83
2022-08-18T05:55:07.197Z,18.90
2022-08-18T05:57:46.127Z,19.00
2022-08-18T06:00:16.435Z,19.11
2022-08-18T06:03:04.523Z,19.12
2022-08-18T06:05:53.953Z,19.08
2022-08-18T06:08:29.432Z,19.04
2022-08-18T06:10:57.254Z,19.08
2022-08-18T06:13:25.546Z,19.18
2022-08-18T06:16:25.685Z,19.15
2022-08-18T06:19:02.099Z,19.31
2022-08-18T06:22:00.905Z,19.32
2022-08-18T06:24:51.025Z,19.36
2022-08-18T06:27:31.492Z,19.39
2022-08-18T06:30:20.327Z,19.43
2022-08-18T06:33:06.386Z,19.31
2022-08-18T06:35:52.164Z,19.05
2022-08-18T06:38:40.708Z,19.04
2022-08-18T06:41:42.464Z,19.05
2022-08-18T06:44:13.848Z,18.90
2022-08-18T06:46:53.763Z,18.94
2022-08-18T06:49:24.737Z,18.98
2022-08-18T06:51:54.163Z,19.04
2022-08-18T06:54:28.550Z,19.07
2022-08-18T06:56:58.459Z,19.19
2022-08-18T06:59:28.631Z,19.39
2022-08-18T07:02:02.486Z,19.48
2022-08-18T07:04:39.498Z,19.45
2022-08-18T07:07:21.061Z,19.52
2022-08-18T07:09:49.542Z,19.56
2022-08-18T07:12:32.561Z,19.55
2022-08-18T07:15:04.114Z,19.56
2022-08-18T07:17:43.649Z,19.28
2022-08-18T07:20:23.911Z,19.29
2022-08-18T07:23:08.182Z,19.32
2022-08-18T07:25:43.546Z,19.43
2022-08-18T07:28:42.574Z,19.46
2022-08-18T07:31:28.609Z,19.32
2022-08-18T07:34:14.013Z,19.42
2022-08-18T07:37:16.666Z,19.55
2022-08-18T07:39:51.820Z,19.73
2022-08-18T07:42:54.368Z,19.91
2022-08-18T07:45:42.712Z,20.00
2022-08-18T07:48:39.820Z,20.07
2022-08-18T07:51:53.353Z,20.18
2022-08-18T07:54:48.418Z,20.08
2022-08-18T07:57:19.685Z,19.83
2022-08-18T08:00:10.564Z,19.60
2022-08-18T08:03:26.740Z,19.62
2022-08-18T08:06:17.185Z,19.66
2022-08-18T08:09:17.971Z,19.67
2022-08-18T08:12:07.696Z,19.71
2022-08-18T08:14:47.801Z,19.66
2022-08-18T08:17:18.737Z,19.69
2022-08-18T08:20:21.289Z,19.87
2022-08-18T08:23:19.138Z,19.81
2022-08-18T08:25:59.346Z,19.94
2022-08-18T08:28:56.021Z,20.08
2022-08-18T08:31:57.696Z,20.14
2022-08-18T08:34:31.753Z,20.29
2022-08-18T08:37:08.000Z,20.37
2022-08-18T08:39:38.511Z,20.34
2022-08-18T08:42:31.350Z,20.38
2022-08-18T08:45:27.544Z,20.37
2022-08-18T08:48:27.625Z,20.49
2022-08-18T08:51:26.871Z,20.62
2022-08-18T08:54:16.631Z,20.75
2022-08-18T08:56:49.729Z,20.75
2022-08-18T08:59:25.797Z,20.80
2022-08-18T09:02:44.333Z,20.97
2022-08-18T09:05:29.053Z,21.03
2022-08-18T09:07:57.861Z,21.14
2022-08-18T09:10:39.593Z,20.93
2022-08-18T09:13:33.710Z,21.20
2022-08-18T09:16:19.989Z,21.14
2022-08-18T09:19:26.529Z,21.00
2022-08-18T09:22:11.615Z,21.02
2022-08-18T09:25:00.279Z,21.08
2022-08-18T09:27:40.020Z,21.03
2022-08-18T09:30:43.654Z,21.03
2022-08-18T09:33:29.823Z,21.11
2022-08-18T09:36:43.071Z,21.08
2022-08-18T09:39:54.586Z,20.92
2022-08-18T09:42:48.608Z,20.87
2022-08-18T09:45:34.418Z,21.02
2022-08-18T09:48:20.788Z,21.13
2022-08-18T09:51:19.557Z,21.51
2022-08-18T09:53:54.059Z,21.81
2022-08-18T09:56:54.381Z,22.14
2022-08-18T09:59:38.184Z,22.29
2022-08-18T10:02:33.911Z,22.35
2022-08-18T10:05:20.142Z,22.35
2022-08-18T10:08:21.585Z,22.54
2022-08-18T10:11:29.246Z,22.74
2022-08-18T10:14:25.879Z,22.71
2022-08-18T10:17:24.245Z,22.80
2022-08-18T10:20:25.881Z,22.97
2022-08-18T10:22:57.354Z,22.91
2022-08-18T10:25:55.163Z,23.23
2022-08-18T10:29:03.910Z,23.76
2022-08-18T10:31:57.564Z,24.51
2022-08-18T10:34:51.812Z,24.75
2022-08-18T10:37:31.576Z,24.93
2022-08-18T10:40:09.568Z,24.83
2022-08-18T10:42:53.536Z,24.96
2022-08-18T10:45:30.900Z,25.59
2022-08-18T10:48:31.878Z,26.43
2022-08-18T10:51:03.131Z,26.74
2022-08-18T10:53:44.473Z,26.37
2022-08-18T10:56:33.918Z,26.74
2022-08-18T10:59:17.901Z,26.83
2022-08-18T11:02:10.417Z,26.60
2022-08-18T11:04:59.116Z,26.57
2022-08-18T11:07:34.245Z,26.48
2022-08-18T11:13:29.441Z,25.86
2022-08-18T11:16:13.662Z,25.59
2022-08-18T11:18:49.803Z,25.54
2022-08-18T11:21:43.523Z,25.33
2022-08-18T11:24:24.790Z,25.03
2022-08-18T11:27:09.781Z,25.07
2022-08-18T11:29:44.796Z,25.16
2022-08-18T11:32:19.815Z,25.17
2022-08-18T11:34:57.887Z,25.44
2022-08-18T11:37:51.275Z,25.67
2022-08-18T11:43:29.456Z,26.13
2022-08-18T11:46:02.184Z,25.92
2022-08-18T11:48:51.986Z,25.79
2022-08-18T11:51:27.449Z,25.64
2022-08-18T11:54:14.158Z,25.24
2022-08-18T11:56:44.453Z,25.26
2022-08-18T11:59:52.981Z,25.49
2022-08-18T12:02:24.975Z,25.62
2022-08-18T12:05:00.340Z,25.69
2022-08-18T12:07:36.803Z,25.62
2022-08-18T12:13:27.047Z,25.58
2022-08-18T12:16:34.246Z,25.45
2022-08-18T12:19:05.471Z,25.26
2022-08-18T12:21:55.400Z,24.77
2022-08-18T12:24:36.735Z,24.71
2022-08-18T12:27:20.874Z,24.71
2022-08-18T12:29:54.031Z,24.94
2022-08-18T12:32:48.862Z,24.96
2022-08-18T12:35:14.531Z,25.16
2022-08-18T12:38:11.394Z,25.31
2022-08-18T12:40:33.104Z,25.42
2022-08-18T12:43:00.932Z,25.45
2022-08-18T12:45:31.420Z,25.68
2022-08-18T12:48:04.175Z,25.69
2022-08-18T12:50:50.298Z,25.59
2022-08-18T12:56:19.778Z,25.92
2022-08-18T12:58:48.407Z,26.46
2022-08-18T13:01:20.403Z,26.85
2022-08-18T13:04:11.161Z,27.05
2022-08-18T13:06:59.905Z,27.04
2022-08-18T13:09:34.294Z,27.32
2022-08-18T13:12:16.022Z,27.59
2022-08-18T13:14:44.801Z,27.73
2022-08-18T13:17:30.695Z,27.59
2022-08-18T13:20:09.378Z,27.70
2022-08-18T13:22:41.329Z,27.81
2022-08-18T13:25:28.836Z,27.93
2022-08-18T13:28:01.663Z,27.61
2022-08-18T13:30:32.321Z,27.38
2022-08-18T13:33:33.826Z,26.99
2022-08-18T13:35:54.846Z,27.16
2022-08-18T13:38:26.090Z,27.21
2022-08-18T13:40:59.440Z,27.16
2022-08-18T13:43:35.532Z,26.96
2022-08-18T13:46:07.296Z,26.77
2022-08-18T13:48:37.905Z,26.96
2022-08-18T13:51:08.463Z,27.15
2022-08-18T13:53:50.404Z,26.88
2022-08-18T13:56:20.714Z,27.06
2022-08-18T13:58:59.693Z,27.04
2022-08-18T14:01:50.083Z,27.16
2022-08-18T14:04:20.551Z,27.12
2022-08-18T14:06:56.152Z,26.81
2022-08-18T14:09:35.917Z,26.63
2022-08-18T14:12:15.761Z,26.55
2022-08-18T14:14:52.750Z,26.27
2022-08-18T14:17:23.019Z,26.00
2022-08-18T14:20:21.441Z,25.89
2022-08-18T14:23:21.687Z,26.06
2022-08-18T14:26:09.132Z,26.13
2022-08-18T14:28:38.351Z,26.02
2022-08-18T14:31:14.553Z,26.30
2022-08-18T14:33:51.566Z,26.37
2022-08-18T14:36:29.992Z,26.70
2022-08-18T14:38:59.432Z,26.81
2022-08-18T14:41:27.571Z,27.05
2022-08-18T14:44:12.381Z,27.08
2022-08-18T14:46:47.502Z,26.81
2022-08-18T14:49:29.476Z,26.90
2022-08-18T14:52:02.022Z,26.96
2022-08-18T14:54:31.219Z,26.95
2022-08-18T14:57:03.735Z,27.01
2022-08-18T14:59:34.472Z,27.12
2022-08-18T15:02:13.368Z,27.13
2022-08-18T15:04:55.966Z,27.28
2022-08-18T15:07:24.598Z,27.47
2022-08-18T15:10:15.127Z,27.53
2022-08-18T15:12:42.482Z,27.53
2022-08-18T15:15:16.770Z,27.28
2022-08-18T15:17:50.371Z,27.40
2022-08-18T15:20:29.442Z,27.59
2022-08-18T15:23:22.893Z,27.89
2022-08-18T15:25:52.835Z,27.53
2022-08-18T15:28:27.217Z,27.29
2022-08-18T15:33:43.497Z,27.35
2022-08-18T15:36:28.754Z,27.31
2022-08-18T15:38:56.771Z,27.50
2022-08-18T15:41:32.732Z,27.49
2022-08-18T15:44:04.968Z,27.36
2022-08-18T15:46:35.548Z,27.23
2022-08-18T15:49:07.717Z,27.21
2022-08-18T15:51:41.258Z,26.98
2022-08-18T15:54:14.887Z,27.09
2022-08-18T15:56:43.535Z,27.29
2022-08-18T15:59:12.642Z,27.45
2022-08-18T16:01:45.420Z,27.60
2022-08-18T16:04:17.548Z,27.77
2022-08-18T16:06:47.850Z,27.64
2022-08-18T16:09:17.178Z,27.60
2022-08-18T16:11:45.298Z,27.57
2022-08-18T16:14:15.569Z,27.60
2022-08-18T16:16:43.853Z,27.47
2022-08-18T16:19:14.951Z,27.54
2022-08-18T16:21:43.761Z,27.53
2022-08-18T16:24:17.837Z,27.64
2022-08-18T16:26:46.125Z,27.63
2022-08-18T16:29:15.399Z,27.56
2022-08-18T16:31:43.374Z,27.49
2022-08-18T16:34:12.965Z,27.43
2022-08-18T16:36:42.301Z,27.40
2022-08-18T16:39:09.879Z,27.31
2022-08-18T16:41:42.655Z,27.45
2022-08-18T16:44:11.175Z,27.43
2022-08-18T16:46:40.933Z,27.45
2022-08-18T16:49:11.624Z,27.50
2022-08-18T16:51:41.716Z,27.52
2022-08-18T16:54:09.865Z,27.46
2022-08-18T16:56:39.472Z,27.42
2022-08-18T16:59:26.498Z,27.46
2022-08-18T17:02:13.606Z,27.31
2022-08-18T17:04:42.907Z,26.99
2022-08-18T17:07:11.395Z,26.84
2022-08-18T17:09:40.999Z,26.92
2022-08-18T17:12:09.399Z,27.04
2022-08-18T17:14:37.236Z,27.09
2022-08-18T17:17:06.027Z,27.06
2022-08-18T17:19:35.529Z,27.05
2022-08-18T17:22:05.265Z,27.04
2022-08-18T17:24:33.369Z,26.88
2022-08-18T17:27:26.722Z,26.87
2022-08-18T17:30:00.849Z,26.85
2022-08-18T17:35:28.823Z,26.87
2022-08-18T17:38:15.158Z,26.75
2022-08-18T17:40:56.110Z,26.61
2022-08-18T17:46:14.434Z,26.57
2022-08-18T17:48:52.511Z,26.41
2022-08-18T17:51:34.514Z,26.37
2022-08-18T17:54:30.187Z,26.48
2022-08-18T17:57:06.527Z,26.48
2022-08-18T17:59:51.929Z,26.46
2022-08-18T18:02:30.654Z,26.40
2022-08-18T18:05:05.553Z,26.39
2022-08-18T18:07:39.911Z,26.37
2022-08-18T18:10:14.485Z,26.32
2022-08-18T18:12:43.929Z,26.32
2022-08-18T18:15:15.690Z,26.27
2022-08-18T18:17:45.222Z,26.20
2022-08-18T18:20:16.162Z,26.13
2022-08-18T18:22:45.904Z,26.03
2022-08-18T18:25:34.660Z,25.98
2022-08-18T18:28:02.872Z,25.85
2022-08-18T18:30:30.510Z,25.78
2022-08-18T18:32:59.692Z,25.74
2022-08-18T18:35:57.139Z,25.64
2022-08-18T18:38:25.159Z,25.58
2022-08-18T18:41:03.060Z,25.49
2022-08-18T18:43:38.408Z,25.44
2022-08-18T18:46:23.122Z,25.35
2022-08-18T18:49:15.526Z,25.21
2022-08-18T18:51:59.391Z,25.14
2022-08-18T18:54:44.364Z,25.07
2022-08-18T18:57:35.116Z,25.02
2022-08-18T19:00:18.302Z,24.94
2022-08-18T19:03:18.320Z,24.86
2022-08-18T19:06:01.566Z,24.79
2022-08-18T19:08:49.443Z,24.72
2022-08-18T19:11:20.264Z,24.65
2022-08-18T19:14:00.755Z,24.58
2022-08-18T19:16:42.867Z,24.53
2022-08-18T19:19:37.948Z,24.47
2022-08-18T19:22:24.765Z,24.43
2022-08-18T19:24:59.275Z,24.36
2022-08-18T19:27:40.024Z,24.28
2022-08-18T19:30:15.698Z,24.22
2022-08-18T19:32:53.803Z,24.15
2022-08-18T19:35:47.059Z,24.05
2022-08-18T19:38:46.373Z,23.97
2022-08-18T19:41:39.183Z,23.84
2022-08-18T19:44:25.699Z,23.77
2022-08-18T19:47:03.674Z,23.70
2022-08-18T19:49:57.324Z,23.63
2022-08-18T19:52:52.732Z,23.52
2022-08-18T19:55:53.655Z,23.43
2022-08-18T19:59:15.197Z,23.33
2022-08-18T20:02:25.762Z,23.32
2022-08-18T20:05:20.030Z,23.32
2022-08-18T20:08:07.915Z,23.36
2022-08-18T20:10:50.662Z,23.36
2022-08-18T20:13:43.506Z,23.29
2022-08-18T20:16:33.120Z,23.19
2022-08-18T20:19:54.409Z,23.11
2022-08-18T20:22:24.661Z,23.04
2022-08-18T20:24:59.697Z,22.97
2022-08-18T20:27:38.174Z,22.87
2022-08-18T20:30:26.679Z,22.77
2022-08-18T20:33:29.184Z,22.70
2022-08-18T20:36:32.424Z,22.61
2022-08-18T20:39:20.967Z,22.54
2022-08-18T20:41:51.170Z,22.51
2022-08-18T20:44:43.324Z,22.46
2022-08-18T20:47:35.577Z,22.41
2022-08-18T20:50:33.927Z,22.37
2022-08-18T20:53:32.842Z,22.32
2022-08-18T20:56:32.268Z,22.23
2022-08-18T20:59:22.563Z,22.20
2022-08-18T21:01:55.053Z,22.17
2022-08-18T21:04:50.086Z,22.13
2022-08-18T21:07:36.576Z,22.12
2022-08-18T21:10:29.780Z,22.08
2022-08-18T21:13:04.643Z,22.09
2022-08-18T21:15:38.149Z,22.06
2022-08-18T21:18:35.968Z,22.03
2022-08-18T21:21:15.623Z,22.03
2022-08-18T21:23:59.260Z,21.99
2022-08-18T21:26:31.124Z,21.96
2022-08-18T21:29:14.296Z,21.96
2022-08-18T21:31:45.990Z,21.91
2022-08-18T21:34:33.430Z,21.85
2022-08-18T21:37:08.146Z,21.74
2022-08-18T21:39:56.714Z,21.71
2022-08-18T21:42:27.932Z,21.66
2022-08-18T21:44:58.759Z,21.62
2022-08-18T21:47:34.322Z,21.62
2022-08-18T21:50:17.662Z,21.61
2022-08-18T21:52:54.263Z,21.57
2022-08-18T21:55:29.344Z,21.57
2022-08-18T21:58:18.612Z,21.55
2022-08-18T22:01:09.357Z,21.54
2022-08-18T22:04:04.007Z,21.48
2022-08-18T22:06:35.109Z,21.45
2022-08-18T22:09:31.698Z,21.40
2022-08-18T22:12:44.684Z,21.35
2022-08-18T22:15:19.504Z,21.30
2022-08-18T22:17:52.571Z,21.22
2022-08-18T22:20:42.581Z,21.24
2022-08-18T22:23:43.050Z,21.23
2022-08-18T22:26:21.980Z,21.23
2022-08-18T22:28:57.021Z,21.23
2022-08-18T22:31:47.265Z,21.19
2022-08-18T22:34:27.433Z,21.14
2022-08-18T22:37:09.967Z,21.10
2022-08-18T22:40:03.233Z,21.00
2022-08-18T22:42:33.462Z,20.99
2022-08-18T22:45:05.924Z,21.00
2022-08-18T22:47:40.523Z,21.00
2022-08-18T22:50:14.619Z,20.97
2022-08-18T22:52:48.200Z,20.97
2022-08-18T22:55:21.746Z,20.97
2022-08-18T22:57:56.198Z,21.02
2022-08-18T23:00:25.887Z,20.99
2022-08-18T23:02:55.276Z,20.97
2022-08-18T23:05:23.612Z,20.93
2022-08-18T23:07:51.806Z,20.90
2022-08-18T23:10:19.648Z,20.87
2022-08-18T23:12:49.442Z,20.86
2022-08-18T23:15:19.479Z,20.87
2022-08-18T23:17:47.361Z,20.72
2022-08-18T23:20:19.285Z,20.82
2022-08-18T23:22:48.676Z,20.82
2022-08-18T23:25:16.722Z,20.79
2022-08-18T23:27:44.373Z,20.80
2022-08-18T23:30:15.512Z,20.86
2022-08-18T23:32:43.733Z,20.87
2022-08-18T23:35:14.017Z,20.82
2022-08-18T23:37:43.696Z,20.76
2022-08-18T23:40:18.350Z,20.82
2022-08-18T23:42:46.524Z,20.77
2022-08-18T23:45:15.656Z,20.75
2022-08-18T23:47:43.946Z,20.72
2022-08-18T23:50:14.283Z,20.69
2022-08-18T23:52:42.858Z,20.66
2022-08-18T23:55:17.254Z,20.61
2022-08-18T23:57:44.876Z,20.59
